Time;durP1;ratioP1;P1;durP2;ratioP2;P2;SDS_P1;SDS_P2;PMS_P1;PMS_P2;Temp;Humidity;BMP_temperature;BMP_pressure;BME280_temperature;BME280_humidity;BME280_pressure;Samples;Min_cycle;Max_cycle;Signal;HPM_P1;HPM_P2
2021/07/07 00:01:54;;;;;;;2.50;1.70;;;18.10;95.20;;;;;;4994626;28;20920;-75
2021/07/07 00:04:23;;;;;;;3.33;1.57;;;18.00;95.20;;;;;;4996627;28;20955;-76
2021/07/07 00:06:51;;;;;;;2.90;1.53;;;18.00;95.30;;;;;;5014232;28;20541;-75
2021/07/07 00:09:20;;;;;;;2.20;1.70;;;17.90;95.30;;;;;;4996606;28;20501;-76
2021/07/07 00:11:48;;;;;;;2.70;1.47;;;17.90;95.40;;;;;;4996515;28;20472;-75
2021/07/07 00:14:17;;;;;;;4.80;1.47;;;17.90;95.50;;;;;;4996514;28;20438;-75
2021/07/07 00:16:45;;;;;;;2.73;1.63;;;17.80;95.50;;;;;;4996504;28;20463;-75
2021/07/07 00:19:15;;;;;;;2.53;1.40;;;17.80;95.60;;;;;;4996281;28;20445;-74
2021/07/07 00:21:43;;;;;;;3.50;1.90;;;17.80;95.70;;;;;;5013860;28;20456;-74
2021/07/07 00:24:12;;;;;;;3.83;1.73;;;17.70;95.70;;;;;;4996554;28;20443;-74
2021/07/07 00:26:40;;;;;;;1.57;1.43;;;17.70;95.80;;;;;;4996403;28;20458;-75
2021/07/07 00:29:08;;;;;;;3.20;1.30;;;17.60;95.80;;;;;;4996278;28;20463;-75
2021/07/07 00:31:37;;;;;;;1.53;1.37;;;17.60;95.90;;;;;;5014357;28;20818;-75
2021/07/07 00:34:06;;;;;;;2.00;1.43;;;17.60;96.00;;;;;;4996229;28;20937;-75
2021/07/07 00:36:35;;;;;;;3.37;1.53;;;17.50;96.00;;;;;;5015414;28;20541;-75
2021/07/07 00:39:04;;;;;;;4.07;2.47;;;17.50;96.10;;;;;;4996035;28;20591;-75
2021/07/07 00:41:32;;;;;;;5.80;3.43;;;17.50;96.20;;;;;;5013756;28;20536;-74
2021/07/07 00:44:00;;;;;;;3.35;2.53;;;17.40;96.20;;;;;;4996009;28;20514;-75
2021/07/07 00:46:28;;;;;;;3.03;1.90;;;17.40;96.50;;;;;;4994900;28;20211;-75
2021/07/07 00:48:57;;;;;;;2.43;1.53;;;17.40;96.50;;;;;;4996053;28;20855;-75
2021/07/07 00:51:25;;;;;;;1.50;1.07;;;17.40;96.50;;;;;;4995840;28;20477;-75
2021/07/07 00:53:56;;;;;;;2.43;1.50;;;17.30;96.50;;;;;;4995890;28;20445;-75
2021/07/07 00:56:24;;;;;;;3.77;1.90;;;17.30;96.60;;;;;;5014355;28;20500;-75
2021/07/07 00:58:55;;;;;;;2.70;1.73;;;17.30;96.70;;;;;;4995785;28;20441;-75
2021/07/07 01:01:23;;;;;;;6.23;3.10;;;17.30;96.80;;;;;;4996493;28;20562;-75
2021/07/07 01:03:51;;;;;;;2.23;1.87;;;17.20;96.70;;;;;;4996740;28;20505;-75
2021/07/07 01:06:21;;;;;;;2.87;1.80;;;17.20;96.80;;;;;;5012166;28;20478;-75
2021/07/07 01:08:49;;;;;;;2.20;1.40;;;17.20;96.80;;;;;;5004269;28;20421;-75
2021/07/07 01:11:18;;;;;;;2.83;1.70;;;17.20;96.90;;;;;;4995664;28;21001;-75
2021/07/07 01:13:47;;;;;;;5.47;1.40;;;17.10;97.20;;;;;;4995888;28;20515;-75
2021/07/07 01:16:15;;;;;;;2.40;1.60;;;17.10;97.00;;;;;;4995949;28;20939;-75
2021/07/07 01:18:43;;;;;;;3.40;2.23;;;17.10;97.10;;;;;;4995707;28;20429;-75
2021/07/07 01:21:12;;;;;;;2.20;1.60;;;17.10;97.10;;;;;;4995877;28;20914;-74
2021/07/07 01:23:41;;;;;;;2.90;1.50;;;17.00;97.10;;;;;;4995674;28;20539;-75
2021/07/07 01:26:09;;;;;;;3.40;1.57;;;17.00;97.20;;;;;;4995819;28;20468;-75
2021/07/07 01:28:37;;;;;;;2.67;1.83;;;17.00;97.30;;;;;;5012786;28;20755;-75
2021/07/07 01:31:06;;;;;;;2.87;1.60;;;16.90;97.30;;;;;;5013093;28;20832;-75
2021/07/07 01:33:35;;;;;;;2.33;1.57;;;16.90;97.40;;;;;;4995684;28;20445;-75
2021/07/07 01:36:03;;;;;;;2.10;1.40;;;16.90;97.50;;;;;;4995627;28;20492;-76
2021/07/07 01:38:31;;;;;;;1.83;1.73;;;16.80;97.50;;;;;;5013425;28;20942;-76
2021/07/07 01:41:02;;;;;;;2.43;1.53;;;16.80;97.60;;;;;;5013046;28;20439;-75
2021/07/07 01:43:30;;;;;;;2.47;1.80;;;16.80;97.60;;;;;;4995591;28;20477;-76
2021/07/07 01:45:58;;;;;;;2.53;1.50;;;16.70;97.60;;;;;;5013005;28;20521;-75
2021/07/07 01:48:26;;;;;;;2.53;1.73;;;16.70;97.70;;;;;;5013064;28;20450;-76
2021/07/07 01:50:54;;;;;;;3.43;1.87;;;16.70;97.80;;;;;;4995543;28;21036;-75
2021/07/07 01:53:23;;;;;;;3.50;1.63;;;16.60;97.80;;;;;;4994785;28;20427;-76
2021/07/07 01:55:54;;;;;;;1.87;1.70;;;16.60;97.80;;;;;;4995450;28;20501;-76
2021/07/07 01:58:24;;;;;;;2.40;1.93;;;16.60;97.90;;;;;;5013373;28;20412;-76
2021/07/07 02:00:52;;;;;;;2.90;1.67;;;16.60;98.00;;;;;;4999615;28;20569;-75
2021/07/07 02:03:21;;;;;;;2.20;1.67;;;16.50;98.00;;;;;;5017199;28;20406;-75
2021/07/07 02:05:49;;;;;;;2.90;2.27;;;16.50;98.10;;;;;;4999074;28;20459;-75
2021/07/07 02:08:20;;;;;;;3.17;1.80;;;16.50;98.10;;;;;;4999238;28;20506;-75
2021/07/07 02:10:48;;;;;;;5.53;2.40;;;16.40;98.10;;;;;;5017023;28;20538;-75
2021/07/07 02:13:16;;;;;;;3.60;1.90;;;16.40;98.20;;;;;;4999012;28;20477;-75
2021/07/07 02:15:51;;;;;;;1.93;1.70;;;16.40;98.20;;;;;;5016232;28;20451;-75
2021/07/07 02:18:19;;;;;;;5.20;2.90;;;16.40;98.30;;;;;;5016982;28;20448;-75
2021/07/07 02:20:50;;;;;;;3.57;2.20;;;16.40;98.40;;;;;;5016683;28;20498;-75
2021/07/07 02:23:19;;;;;;;2.13;1.70;;;16.30;98.40;;;;;;4998804;28;20421;-75
2021/07/07 02:25:47;;;;;;;2.43;2.00;;;16.30;98.50;;;;;;4998819;28;20522;-75
2021/07/07 02:28:17;;;;;;;2.50;2.00;;;16.30;98.50;;;;;;4998698;28;20438;-75
2021/07/07 02:30:46;;;;;;;2.70;1.70;;;16.30;98.60;;;;;;4998541;28;20460;-75
2021/07/07 02:33:16;;;;;;;2.70;2.03;;;16.20;98.50;;;;;;4998589;28;20496;-75
2021/07/07 02:35:45;;;;;;;7.03;2.00;;;16.20;98.60;;;;;;4998042;28;20495;-75
2021/07/07 02:38:15;;;;;;;2.97;1.70;;;16.20;98.60;;;;;;4998476;28;20990;-75
2021/07/07 02:40:44;;;;;;;2.03;1.93;;;16.20;98.70;;;;;;4998511;28;20504;-75
2021/07/07 02:43:13;;;;;;;4.53;2.60;;;16.10;98.70;;;;;;4998617;28;20458;-75
2021/07/07 02:45:42;;;;;;;3.00;2.50;;;16.10;98.80;;;;;;4998000;28;20807;-75
2021/07/07 02:48:13;;;;;;;4.90;2.70;;;16.20;99.30;;;;;;4998890;28;20230;-75
2021/07/07 02:50:44;;;;;;;4.00;1.93;;;16.10;99.10;;;;;;4998500;28;20482;-75
2021/07/07 02:53:14;;;;;;;3.27;2.10;;;16.10;99.10;;;;;;5016046;28;20855;-75
2021/07/07 02:55:43;;;;;;;2.77;1.70;;;16.10;99.20;;;;;;4997909;28;20939;-75
2021/07/07 02:58:12;;;;;;;2.73;2.20;;;16.10;99.20;;;;;;4998155;28;20475;-75
2021/07/07 03:21:04;;;;;;;4.57;2.10;;;15.80;99.60;;;;;;5029186;28;20465;-76
2021/07/07 03:23:32;;;;;;;7.57;2.50;;;15.80;99.70;;;;;;5035466;28;20516;-75
2021/07/07 03:26:00;;;;;;;3.90;2.50;;;15.80;99.70;;;;;;5036325;28;20513;-75
2021/07/07 03:28:28;;;;;;;3.97;2.40;;;15.70;99.70;;;;;;5035191;28;20409;-76
2021/07/07 03:30:56;;;;;;;2.20;2.00;;;15.70;99.70;;;;;;5029405;28;20438;-76
2021/07/07 03:33:24;;;;;;;5.90;2.30;;;15.70;99.80;;;;;;5015218;28;20871;-75
2021/07/07 03:35:53;;;;;;;4.10;2.17;;;15.70;99.80;;;;;;4997841;28;20498;-76
2021/07/07 03:38:24;;;;;;;3.30;2.37;;;15.70;99.90;;;;;;4998133;28;20558;-76
2021/07/07 03:40:52;;;;;;;3.80;2.40;;;15.70;99.90;;;;;;5014889;28;20797;-75
2021/07/07 03:43:20;;;;;;;6.60;2.67;;;15.60;99.90;;;;;;4997551;28;20457;-76
2021/07/07 03:45:48;;;;;;;3.17;2.23;;;15.60;99.90;;;;;;5015706;28;20444;-76
2021/07/07 03:48:18;;;;;;;3.37;2.57;;;15.60;99.90;;;;;;5003344;28;20453;-75
2021/07/07 03:50:47;;;;;;;3.33;2.60;;;15.60;99.90;;;;;;5034673;28;20992;-75
2021/07/07 03:53:15;;;;;;;3.33;2.57;;;15.60;99.90;;;;;;5016896;28;20449;-75
2021/07/07 03:55:49;;;;;;;3.50;2.70;;;15.60;99.90;;;;;;5034138;28;20467;-76
2021/07/07 03:58:17;;;;;;;4.67;2.47;;;15.60;99.90;;;;;;5016790;28;20202;-76
2021/07/07 04:00:45;;;;;;;2.60;2.27;;;15.60;99.90;;;;;;5032140;28;20498;-76
2021/07/07 04:03:14;;;;;;;2.30;2.10;;;15.60;99.90;;;;;;4982074;28;20440;-76
2021/07/07 04:05:42;;;;;;;4.80;2.80;;;15.60;99.90;;;;;;5033635;28;20291;-75
2021/07/07 04:08:10;;;;;;;4.40;2.20;;;15.60;99.90;;;;;;5014808;28;20937;-75
2021/07/07 04:10:38;;;;;;;3.80;2.70;;;15.50;99.90;;;;;;5014732;28;20828;-76
2021/07/07 04:13:07;;;;;;;2.63;2.43;;;15.50;99.90;;;;;;5018742;28;20469;-75
2021/07/07 04:15:36;;;;;;;3.10;2.80;;;15.50;99.90;;;;;;5034253;28;20454;-76
2021/07/07 04:18:08;;;;;;;3.27;1.87;;;15.50;99.90;;;;;;5016575;28;20465;-76
2021/07/07 04:20:37;;;;;;;2.97;2.10;;;15.50;99.90;;;;;;5034017;28;20448;-75
2021/07/07 04:23:05;;;;;;;3.03;2.57;;;15.50;99.90;;;;;;5015986;28;20432;-75
2021/07/07 04:25:33;;;;;;;5.93;2.73;;;15.50;99.90;;;;;;5034608;28;20766;-75
2021/07/07 04:28:01;;;;;;;2.20;1.93;;;15.50;99.90;;;;;;5034081;28;20977;-75
2021/07/07 04:30:30;;;;;;;3.40;2.17;;;15.50;99.90;;;;;;5034286;28;20460;-75
2021/07/07 04:32:59;;;;;;;4.33;2.70;;;15.50;99.90;;;;;;4996141;28;20452;-76
2021/07/07 04:35:27;;;;;;;3.90;2.30;;;15.50;99.90;;;;;;5026109;28;20485;-75
2021/07/07 04:37:55;;;;;;;4.43;2.07;;;15.50;99.90;;;;;;4996507;28;20426;-76
2021/07/07 04:40:25;;;;;;;3.20;2.10;;;15.50;99.90;;;;;;5014153;28;20434;-76
2021/07/07 04:42:54;;;;;;;3.43;2.60;;;15.50;99.90;;;;;;4997042;28;20447;-76
2021/07/07 04:45:22;;;;;;;3.10;2.80;;;15.50;99.90;;;;;;4996363;28;20428;-76
2021/07/07 04:47:52;;;;;;;6.93;2.67;;;15.50;99.90;;;;;;5014265;28;20445;-76
2021/07/07 04:50:21;;;;;;;2.57;2.20;;;15.50;99.90;;;;;;5015501;28;20445;-76
2021/07/07 04:52:49;;;;;;;4.00;2.83;;;15.50;99.90;;;;;;5032368;28;20563;-75
2021/07/07 04:55:19;;;;;;;3.93;2.37;;;15.50;99.90;;;;;;5027143;28;20538;-76
2021/07/07 04:57:47;;;;;;;3.83;2.50;;;15.50;99.90;;;;;;5013822;28;20955;-76
2021/07/07 05:00:18;;;;;;;4.30;3.10;;;15.50;99.90;;;;;;4996144;28;20532;-76
2021/07/07 05:02:47;;;;;;;2.80;2.60;;;15.60;99.90;;;;;;5027934;28;20994;-76
2021/07/07 05:05:19;;;;;;;6.17;3.00;;;15.60;99.90;;;;;;5029921;28;20421;-77
2021/07/07 05:07:47;;;;;;;3.73;2.50;;;15.60;99.90;;;;;;5034332;28;20518;-77
2021/07/07 05:10:20;;;;;;;4.10;2.40;;;15.60;99.90;;;;;;5016068;28;20450;-77
2021/07/07 05:12:49;;;;;;;4.60;2.90;;;15.60;99.90;;;;;;5013812;28;20557;-76
2021/07/07 05:15:18;;;;;;;4.40;2.33;;;15.70;99.90;;;;;;5033528;28;20425;-76
2021/07/07 05:17:46;;;;;;;4.17;2.30;;;15.70;99.90;;;;;;5033431;28;20556;-77
2021/07/07 05:20:17;;;;;;;4.47;2.80;;;15.80;99.90;;;;;;5015869;28;20477;-76
2021/07/07 05:22:47;;;;;;;6.87;2.77;;;15.80;99.90;;;;;;5033765;28;20428;-76
2021/07/07 05:25:17;;;;;;;3.33;3.03;;;15.80;99.90;;;;;;5016012;28;20467;-75
2021/07/07 05:27:46;;;;;;;3.97;2.47;;;15.90;99.90;;;;;;5015716;28;20498;-76
2021/07/07 05:30:20;;;;;;;3.97;2.93;;;15.80;99.90;;;;;;5015606;28;21025;-75
2021/07/07 05:32:48;;;;;;;4.03;2.23;;;15.90;99.90;;;;;;5013560;28;20490;-75
2021/07/07 05:35:20;;;;;;;3.60;2.40;;;15.90;99.90;;;;;;5013423;28;20449;-75
2021/07/07 05:37:49;;;;;;;5.17;2.37;;;15.90;99.90;;;;;;4999972;28;20478;-75
2021/07/07 05:40:18;;;;;;;2.57;2.37;;;16.00;99.90;;;;;;5017418;28;20463;-75
2021/07/07 05:42:52;;;;;;;2.83;2.20;;;16.10;99.90;;;;;;5017527;28;20993;-75
2021/07/07 05:45:22;;;;;;;3.20;2.60;;;16.20;99.90;;;;;;5017366;28;20436;-75
2021/07/07 05:47:50;;;;;;;4.90;2.87;;;16.40;99.90;;;;;;4999738;28;20424;-75
2021/07/07 05:50:22;;;;;;;3.70;2.60;;;16.60;99.90;;;;;;5036940;28;20444;-76
2021/07/07 05:52:50;;;;;;;4.23;2.37;;;16.80;99.90;;;;;;5010232;28;20894;-75
2021/07/07 05:55:20;;;;;;;3.30;2.37;;;17.00;99.90;;;;;;5036072;28;20490;-76
2021/07/07 05:57:49;;;;;;;5.77;2.83;;;17.20;99.90;;;;;;5036867;28;20415;-76
2021/07/07 06:00:20;;;;;;;2.90;2.20;;;17.40;99.90;;;;;;5018992;28;20472;-75
2021/07/07 06:02:51;;;;;;;7.20;2.50;;;17.60;99.90;;;;;;5037224;28;20809;-76
2021/07/07 06:05:21;;;;;;;3.23;1.90;;;17.80;99.90;;;;;;5018537;28;20414;-76
2021/07/07 06:07:50;;;;;;;4.47;2.10;;;18.00;99.90;;;;;;5018037;28;20843;-76
2021/07/07 06:10:22;;;;;;;4.00;2.20;;;18.20;99.90;;;;;;5017067;28;20525;-76
2021/07/07 06:12:50;;;;;;;3.57;2.23;;;18.40;99.90;;;;;;4999384;28;20493;-76
2021/07/07 06:15:19;;;;;;;5.60;2.10;;;18.60;99.90;;;;;;5017547;28;20520;-75
2021/07/07 06:17:47;;;;;;;3.40;2.00;;;18.80;99.90;;;;;;5019279;28;20444;-76
2021/07/07 06:20:17;;;;;;;3.75;2.20;;;19.00;99.90;;;;;;5007956;28;20520;-76
2021/07/07 06:22:47;;;;;;;3.40;2.50;;;19.30;99.90;;;;;;4998045;28;20695;-76
2021/07/07 06:25:16;;;;;;;5.00;2.10;;;19.60;99.90;;;;;;5015858;28;20497;-76
2021/07/07 06:27:45;;;;;;;4.63;1.90;;;19.90;99.90;;;;;;5022184;28;20441;-76
2021/07/07 06:30:16;;;;;;;4.60;1.93;;;20.10;99.90;;;;;;5017288;28;21003;-76
2021/07/07 06:32:46;;;;;;;3.03;1.83;;;20.40;99.90;;;;;;5035690;28;20481;-76
2021/07/07 06:35:15;;;;;;;2.57;1.90;;;20.70;99.90;;;;;;5017447;28;20471;-77
2021/07/07 06:37:44;;;;;;;3.47;2.00;;;21.00;99.90;;;;;;5030312;28;20459;-76
2021/07/07 06:40:27;;;;;;;4.57;2.03;;;21.20;99.90;;;;;;5020436;28;20567;-76
2021/07/07 06:42:56;;;;;;;4.27;1.90;;;21.40;99.90;;;;;;5008913;28;20463;-76
2021/07/07 06:45:26;;;;;;;4.50;2.10;;;21.60;99.90;;;;;;4996687;28;20468;-76
2021/07/07 06:47:55;;;;;;;2.27;1.93;;;21.80;99.90;;;;;;4997060;28;20451;-76
2021/07/07 06:50:24;;;;;;;3.17;1.70;;;22.00;99.90;;;;;;4997146;28;20935;-76
2021/07/07 06:52:52;;;;;;;3.50;2.30;;;22.20;99.90;;;;;;5014516;28;20443;-76
2021/07/07 06:55:23;;;;;;;2.60;1.70;;;22.40;99.90;;;;;;4996752;28;20479;-75
2021/07/07 06:57:51;;;;;;;2.63;1.70;;;22.60;99.90;;;;;;5002778;28;20971;-76
2021/07/07 07:00:21;;;;;;;4.10;2.67;;;22.80;99.90;;;;;;5014867;28;20514;-76
2021/07/07 07:02:50;;;;;;;2.43;2.20;;;22.90;99.90;;;;;;5016527;28;20466;-76
2021/07/07 07:05:21;;;;;;;3.67;2.07;;;23.00;99.90;;;;;;5006369;28;20539;-76
2021/07/07 07:07:51;;;;;;;4.23;2.03;;;23.20;99.90;;;;;;4996876;28;20518;-76
2021/07/07 07:10:26;;;;;;;4.90;2.10;;;23.30;99.70;;;;;;4996150;28;20472;-76
2021/07/07 07:12:57;;;;;;;3.97;1.90;;;23.50;99.70;;;;;;4997077;28;20444;-76
2021/07/07 07:15:25;;;;;;;5.17;2.27;;;23.60;99.60;;;;;;5014323;28;20511;-75
2021/07/07 07:17:54;;;;;;;2.90;1.50;;;23.80;99.60;;;;;;5001155;28;20466;-75
2021/07/07 07:20:26;;;;;;;2.70;1.70;;;24.00;99.40;;;;;;4977459;28;1087553;-76
2021/07/07 07:22:54;;;;;;;4.43;1.70;;;24.10;99.40;;;;;;4997640;28;20460;-76
2021/07/07 07:25:22;;;;;;;3.70;1.23;;;24.20;98.70;;;;;;4998114;28;20647;-76
2021/07/07 07:27:52;;;;;;;3.37;1.80;;;24.30;98.40;;;;;;4998432;28;20477;-78
2021/07/07 07:30:21;;;;;;;4.13;1.67;;;24.40;98.10;;;;;;4996871;28;20557;-77
2021/07/07 07:32:50;;;;;;;4.70;1.80;;;24.50;97.90;;;;;;5015375;28;20443;-77
2021/07/07 07:35:21;;;;;;;2.73;1.47;;;24.50;97.00;;;;;;4998734;28;20296;-77
2021/07/07 07:37:53;;;;;;;2.90;2.63;;;24.70;97.10;;;;;;5029984;28;20478;-78
2021/07/07 07:40:26;;;;;;;3.80;1.60;;;24.80;96.90;;;;;;5030531;28;20475;-77
2021/07/07 07:42:56;;;;;;;3.30;2.40;;;24.90;96.90;;;;;;4979951;28;20487;-77
2021/07/07 07:45:25;;;;;;;4.70;1.97;;;24.90;96.80;;;;;;4996358;28;20441;-78
2021/07/07 07:47:53;;;;;;;4.73;2.30;;;25.00;96.90;;;;;;4991904;28;21010;-77
2021/07/07 07:50:22;;;;;;;4.30;2.70;;;25.10;96.80;;;;;;4978491;28;20469;-78
2021/07/07 07:52:51;;;;;;;3.83;1.90;;;25.20;96.70;;;;;;4996913;28;20460;-78
2021/07/07 07:55:20;;;;;;;5.20;2.20;;;25.30;96.50;;;;;;4996737;28;20473;-78
2021/07/07 07:57:49;;;;;;;3.37;2.40;;;25.30;96.30;;;;;;5003182;28;20899;-78
2021/07/07 08:00:22;;;;;;;5.97;3.13;;;25.30;96.20;;;;;;5017431;28;20483;-78
2021/07/07 08:02:51;;;;;;;4.07;2.43;;;25.40;96.10;;;;;;5035610;28;20432;-77
2021/07/07 08:05:23;;;;;;;3.63;2.17;;;25.40;96.00;;;;;;5034614;28;20424;-77
2021/07/07 08:07:52;;;;;;;6.30;2.90;;;25.40;95.90;;;;;;5016963;28;20447;-77
2021/07/07 08:10:22;;;;;;;6.90;3.50;;;25.50;95.90;;;;;;5016637;28;20478;-77
2021/07/07 08:12:52;;;;;;;5.87;4.03;;;25.60;95.90;;;;;;5017664;28;20528;-78
2021/07/07 08:15:24;;;;;;;2.30;1.97;;;25.60;95.80;;;;;;5018728;28;20467;-77
2021/07/07 08:17:52;;;;;;;6.00;2.20;;;25.60;95.60;;;;;;5038218;28;20458;-77
2021/07/07 08:20:21;;;;;;;2.67;2.00;;;25.60;95.40;;;;;;5016759;28;20806;-78
2021/07/07 08:22:51;;;;;;;5.37;2.10;;;25.50;95.00;;;;;;5024282;28;20860;-78
2021/07/07 08:25:20;;;;;;;2.73;1.90;;;25.40;95.00;;;;;;4997976;28;20510;-77
2021/07/07 08:27:49;;;;;;;3.90;2.33;;;25.40;95.10;;;;;;4997820;28;20432;-77
2021/07/07 08:30:19;;;;;;;5.60;2.30;;;25.50;95.40;;;;;;4996250;28;20493;-77
2021/07/07 08:32:48;;;;;;;3.27;1.90;;;25.60;94.40;;;;;;4997363;28;20201;-77
2021/07/07 08:35:18;;;;;;;2.73;1.77;;;25.80;94.40;;;;;;4997062;28;20471;-78
2021/07/07 08:37:46;;;;;;;3.57;2.10;;;25.80;94.30;;;;;;5004269;28;20530;-78
2021/07/07 08:40:16;;;;;;;4.17;3.17;;;25.80;94.10;;;;;;5034092;28;20490;-78
2021/07/07 08:42:47;;;;;;;3.73;1.90;;;25.90;94.10;;;;;;5018378;28;20459;-77
2021/07/07 08:45:18;;;;;;;9.87;4.53;;;25.90;94.10;;;;;;5014980;28;20523;-78
2021/07/07 08:47:49;;;;;;;3.03;2.07;;;26.00;94.20;;;;;;5017628;28;20539;-78
2021/07/07 08:50:19;;;;;;;3.57;1.97;;;26.00;94.30;;;;;;4998488;28;20479;-78
2021/07/07 08:52:48;;;;;;;3.17;1.90;;;26.00;94.30;;;;;;5014794;28;20846;-77
2021/07/07 08:55:18;;;;;;;5.37;2.33;;;26.00;94.20;;;;;;5013759;28;20460;-78
2021/07/07 08:57:46;;;;;;;4.40;2.37;;;26.10;94.20;;;;;;5032455;28;20447;-77
2021/07/07 09:00:17;;;;;;;3.27;1.80;;;26.10;94.00;;;;;;5034229;28;20550;-77
2021/07/07 09:02:54;;;;;;;3.23;2.00;;;26.20;93.70;;;;;;5033999;28;20449;-76
2021/07/07 09:05:26;;;;;;;3.87;2.30;;;26.10;93.50;;;;;;5016388;28;20459;-77
2021/07/07 09:08:04;;;;;;;3.70;1.70;;;26.20;93.50;;;;;;5009422;28;20964;-76
2021/07/07 09:10:34;;;;;;;7.60;4.13;;;26.30;93.50;;;;;;5013494;28;20464;-76
2021/07/07 09:13:11;;;;;;;5.13;3.50;;;26.40;93.50;;;;;;4995803;28;20451;-77
2021/07/07 09:15:41;;;;;;;3.47;2.20;;;26.40;93.50;;;;;;5012814;28;20455;-77
2021/07/07 09:18:22;;;;;;;3.60;2.40;;;26.60;92.90;;;;;;5014332;28;20197;-77
2021/07/07 09:20:51;;;;;;;3.53;2.40;;;26.60;92.90;;;;;;5014566;28;20495;-78
2021/07/07 09:23:22;;;;;;;4.27;2.40;;;26.70;92.90;;;;;;5014741;28;20445;-78
2021/07/07 09:25:56;;;;;;;4.57;2.20;;;26.70;92.90;;;;;;4996648;28;20443;-78
2021/07/07 09:28:26;;;;;;;2.80;2.03;;;26.90;92.20;;;;;;5015621;28;20479;-78
2021/07/07 09:30:59;;;;;;;4.67;2.50;;;26.80;92.30;;;;;;4998531;28;20503;-79
2021/07/07 09:33:37;;;;;;;10.40;4.03;;;26.80;92.40;;;;;;5020468;28;20443;-79
2021/07/07 09:36:20;;;;;;;6.30;3.30;;;26.80;92.50;;;;;;5018742;28;20459;-79
2021/07/07 09:38:50;;;;;;;4.60;2.03;;;26.90;92.50;;;;;;5026716;28;20876;-78
2021/07/07 09:41:19;;;;;;;3.90;2.00;;;26.90;92.90;;;;;;5021801;28;20494;-80
2021/07/07 09:43:48;;;;;;;4.10;1.83;;;26.80;92.50;;;;;;5034225;28;20447;-78
2021/07/07 09:46:18;;;;;;;2.50;1.70;;;26.80;92.30;;;;;;5034515;28;20477;-79
2021/07/07 09:48:49;;;;;;;4.37;2.17;;;26.70;92.20;;;;;;5031696;28;20505;-78
2021/07/07 09:51:18;;;;;;;2.23;1.70;;;26.60;92.10;;;;;;4983225;28;20472;-79
2021/07/07 09:53:47;;;;;;;6.27;2.23;;;26.60;92.10;;;;;;4998759;28;20540;-80
2021/07/07 09:56:15;;;;;;;2.93;2.13;;;26.70;92.20;;;;;;5001043;28;20508;-80
2021/07/07 09:58:44;;;;;;;2.90;1.87;;;26.80;92.30;;;;;;4983512;28;20445;-79
2021/07/07 10:01:12;;;;;;;5.80;3.10;;;26.90;92.10;;;;;;4979695;28;20508;-78
2021/07/07 10:03:41;;;;;;;6.03;5.10;;;27.10;92.00;;;;;;4980126;28;20556;-79
2021/07/07 10:06:11;;;;;;;5.22;2.72;;;27.10;91.90;;;;;;4997058;28;20439;-79
2021/07/07 10:08:41;;;;;;;2.70;2.30;;;27.20;90.10;;;;;;5017214;28;20204;-79
2021/07/07 10:11:10;;;;;;;6.30;2.20;;;27.30;90.50;;;;;;5017415;28;20456;-80
2021/07/07 10:13:39;;;;;;;5.43;1.70;;;27.30;90.50;;;;;;5002121;28;20975;-80
2021/07/07 10:16:07;;;;;;;4.30;1.97;;;27.30;90.40;;;;;;5004070;28;20838;-79
2021/07/07 10:18:36;;;;;;;5.87;2.23;;;27.20;90.20;;;;;;5035564;28;20443;-80
2021/07/07 10:21:14;;;;;;;4.40;2.10;;;27.30;90.30;;;;;;5021495;28;20478;-79
2021/07/07 10:23:48;;;;;;;3.43;2.00;;;27.20;90.30;;;;;;5006271;28;20541;-80
2021/07/07 10:26:18;;;;;;;3.47;2.40;;;27.20;90.20;;;;;;5016118;28;20484;-78
2021/07/07 12:09:23;;;;;;;3.30;2.40;;;26.50;84.60;;;;;;5011146;28;20469;-73
2021/07/07 12:11:52;;;;;;;2.37;2.00;;;26.40;84.50;;;;;;4997371;28;20487;-73
2021/07/07 12:14:26;;;;;;;7.60;2.30;;;26.40;84.70;;;;;;5014498;28;20455;-72
2021/07/07 12:17:16;;;;;;;5.33;1.73;;;26.30;84.10;;;;;;4994626;28;20479;-74
2021/07/07 12:19:45;;;;;;;3.70;2.20;;;26.30;83.90;;;;;;4996021;28;20483;-73
2021/07/07 12:22:15;;;;;;;3.33;1.70;;;26.30;81.70;;;;;;4996597;28;20203;-73
2021/07/07 12:24:47;;;;;;;3.00;1.87;;;26.30;81.70;;;;;;4996761;28;20812;-73
2021/07/07 12:27:21;;;;;;;4.30;2.30;;;26.30;81.70;;;;;;5014206;28;20960;-73
2021/07/07 12:29:50;;;;;;;4.90;2.87;;;26.20;82.30;;;;;;5014142;28;20879;-73
2021/07/07 12:32:22;;;;;;;2.97;1.83;;;26.30;82.00;;;;;;4996489;28;20942;-73
2021/07/07 12:34:52;;;;;;;5.00;2.30;;;26.40;81.90;;;;;;4996464;28;20508;-73
2021/07/07 12:37:24;;;;;;;4.30;2.53;;;26.50;81.80;;;;;;4995897;28;20483;-72
2021/07/07 12:39:56;;;;;;;2.67;2.23;;;26.60;82.20;;;;;;5013844;28;20484;-73
2021/07/07 12:42:27;;;;;;;4.47;2.00;;;26.70;82.30;;;;;;5013268;28;20424;-73
2021/07/07 12:45:05;;;;;;;3.37;1.67;;;26.80;82.00;;;;;;5013878;28;20424;-73
2021/07/07 12:47:33;;;;;;;4.30;2.00;;;26.80;81.90;;;;;;5013626;28;20426;-73
2021/07/07 12:50:02;;;;;;;3.97;1.75;;;26.80;81.80;;;;;;4991659;28;20445;-72
2021/07/07 12:52:33;;;;;;;4.43;1.77;;;26.90;81.30;;;;;;5013065;28;20248;-74
2021/07/07 12:55:11;;;;;;;7.73;2.23;;;26.80;81.30;;;;;;4995956;28;20541;-73
2021/07/07 12:57:55;;;;;;;4.07;2.20;;;26.80;81.50;;;;;;4995533;28;20985;-73
2021/07/07 13:00:37;;;;;;;3.77;2.03;;;26.60;81.30;;;;;;5013088;28;20456;-73
2021/07/07 13:03:07;;;;;;;5.10;2.03;;;26.50;81.50;;;;;;4996003;28;20453;-72
2021/07/07 13:05:40;;;;;;;3.80;2.10;;;26.40;81.70;;;;;;5013182;28;20451;-72
2021/07/07 13:08:10;;;;;;;2.83;1.93;;;26.40;81.50;;;;;;5012829;28;20483;-74
2021/07/07 13:10:42;;;;;;;4.70;3.30;;;26.40;81.60;;;;;;5012716;28;20567;-74
2021/07/07 13:13:36;;;;;;;2.83;1.70;;;26.50;81.50;;;;;;4995731;28;20460;-73
2021/07/07 13:16:07;;;;;;;4.00;2.07;;;26.50;81.00;;;;;;4995798;28;20448;-73
2021/07/07 13:18:55;;;;;;;2.40;1.63;;;26.40;81.50;;;;;;5012684;28;20551;-74
2021/07/07 13:21:31;;;;;;;3.83;2.37;;;26.40;81.60;;;;;;5013157;28;20456;-74
2021/07/07 13:23:59;;;;;;;3.47;2.27;;;26.30;81.50;;;;;;5013376;28;20527;-74
2021/07/07 13:26:37;;;;;;;3.90;2.10;;;26.20;81.60;;;;;;5013231;28;20535;-74
2021/07/07 13:29:18;;;;;;;4.10;2.30;;;26.10;81.30;;;;;;5012487;28;20862;-74
2021/07/07 13:31:59;;;;;;;3.90;2.60;;;26.10;81.30;;;;;;4995658;28;20208;-74
2021/07/07 13:34:50;;;;;;;4.10;2.27;;;26.00;81.60;;;;;;5012475;28;20546;-74
2021/07/07 13:37:21;;;;;;;3.55;2.50;;;26.00;82.60;;;;;;4995215;28;20482;-74
2021/07/07 13:39:51;;;;;;;2.70;2.00;;;26.00;82.70;;;;;;5013359;28;20292;-74
2021/07/07 13:42:22;;;;;;;4.47;1.70;;;26.00;82.60;;;;;;4996629;28;20463;-74
2021/07/07 13:44:51;;;;;;;4.30;1.90;;;25.90;82.50;;;;;;5013605;28;20523;-74
2021/07/07 13:47:23;;;;;;;4.07;2.03;;;25.80;82.30;;;;;;4996374;28;20972;-74
2021/07/07 13:49:52;;;;;;;4.60;1.83;;;25.70;82.00;;;;;;4993521;28;20470;-74
2021/07/07 13:52:21;;;;;;;3.27;2.00;;;25.60;81.60;;;;;;4995631;28;20495;-74
2021/07/07 13:54:49;;;;;;;4.67;2.43;;;25.50;81.40;;;;;;4996988;28;20448;-74
2021/07/07 13:57:17;;;;;;;6.60;2.10;;;25.50;81.50;;;;;;5017631;28;20554;-74
2021/07/07 13:59:47;;;;;;;2.93;1.90;;;25.50;81.60;;;;;;5017412;28;20798;-74
2021/07/07 14:02:16;;;;;;;14.93;2.73;;;25.40;81.40;;;;;;5000248;28;20592;-74
2021/07/07 14:04:45;;;;;;;3.80;2.80;;;25.40;81.60;;;;;;5017207;28;20868;-74
2021/07/07 14:07:13;;;;;;;14.93;10.83;;;25.50;81.80;;;;;;4999409;28;20436;-74
2021/07/07 14:09:42;;;;;;;6.53;2.67;;;25.40;81.90;;;;;;5016622;28;20502;-74
2021/07/07 14:12:10;;;;;;;3.50;2.23;;;25.50;82.20;;;;;;4999267;28;20447;-74
2021/07/07 14:14:39;;;;;;;2.90;2.03;;;25.40;82.20;;;;;;4999565;28;20527;-74
2021/07/07 14:17:08;;;;;;;4.00;2.40;;;25.40;82.30;;;;;;4999671;28;20482;-73
2021/07/07 14:19:37;;;;;;;5.33;2.60;;;25.50;82.50;;;;;;4999308;28;20839;-74
2021/07/07 14:22:05;;;;;;;4.00;2.85;;;25.50;83.40;;;;;;5016755;28;20529;-74
2021/07/07 14:24:33;;;;;;;2.83;2.00;;;25.60;83.20;;;;;;4999057;28;20670;-74
2021/07/07 14:27:01;;;;;;;3.67;2.57;;;25.60;83.10;;;;;;4998968;28;20483;-73
2021/07/07 14:29:29;;;;;;;4.70;2.50;;;25.70;83.80;;;;;;4998851;28;21045;-74
2021/07/07 14:31:59;;;;;;;8.13;2.50;;;25.80;83.20;;;;;;5016438;28;21007;-74
2021/07/07 14:34:29;;;;;;;3.43;2.37;;;25.90;83.10;;;;;;5016458;28;20440;-74
2021/07/07 14:36:57;;;;;;;5.10;2.13;;;25.90;83.10;;;;;;5016356;28;20882;-74
2021/07/07 14:39:25;;;;;;;3.60;2.33;;;25.90;83.10;;;;;;4998697;28;20841;-74
2021/07/07 14:41:53;;;;;;;6.37;3.07;;;25.90;83.40;;;;;;5016250;28;20537;-74
2021/07/07 14:44:22;;;;;;;3.27;2.10;;;25.90;83.90;;;;;;4998649;28;20447;-73
2021/07/07 14:46:53;;;;;;;4.57;2.43;;;25.90;83.30;;;;;;4998629;28;20442;-73
2021/07/07 14:49:21;;;;;;;3.57;2.33;;;25.90;83.50;;;;;;4998802;28;20462;-73
2021/07/07 14:51:51;;;;;;;3.03;2.13;;;25.80;83.20;;;;;;5016560;28;20544;-74
2021/07/07 14:54:19;;;;;;;4.03;2.63;;;25.80;83.10;;;;;;4998479;28;20551;-74
2021/07/07 14:56:47;;;;;;;4.30;2.30;;;25.80;83.20;;;;;;5015849;28;20531;-74
2021/07/07 14:59:15;;;;;;;3.25;2.17;;;25.90;83.50;;;;;;4998008;28;20493;-74
2021/07/07 15:01:43;;;;;;;5.70;2.20;;;26.00;83.20;;;;;;4998433;28;20531;-74